Weather at Muş Airport

Public forecast

Using degrees Celsius for public forecast. Weather courtesy of forecast.io.

Current aviation weather report (METAR) for Muş Airport

2024/02/25 08:50 (retrieved 36 minutes ago)

LTCK 250850Z 06009KT 030V090 9999 FEW040 07/M04 Q1021 RMK RWY11 04007KT 010V090

Closest aviation forecast (TAF) to Muş Airport

Closest forecast is Batman Airport, 55.4 nm (102.7 km) SSW.

2024/02/25 06:00 (retrieved 3 hours ago)

TAF LTCJ 250440Z 2506/2606 VRB02KT CAVOK BECMG 2509/2512 05012KT BECMG 2517/2520 05017G33KT BECMG 2603/2606 VRB02KT